createdAt,value
2019-02-15T00:02:42.692Z,12.40
2019-02-15T00:07:47.975Z,17.70
2019-02-15T00:12:52.479Z,14.40
2019-02-15T00:18:16.166Z,11.83
2019-02-15T00:23:21.128Z,13.70
2019-02-15T00:28:25.516Z,13.50
2019-02-15T00:33:31.123Z,13.58
2019-02-15T00:38:36.687Z,11.03
2019-02-15T00:43:42.261Z,10.37
2019-02-15T00:48:47.328Z,14.03
2019-02-15T00:54:32.658Z,11.03
2019-02-15T00:59:49.053Z,15.45
2019-02-15T01:05:10.102Z,16.20
2019-02-15T01:10:32.657Z,13.53
2019-02-15T01:15:37.924Z,13.23
2019-02-15T01:20:42.597Z,11.73
2019-02-15T01:25:56.439Z,14.23
2019-02-15T01:31:20.237Z,13.87
2019-02-15T01:36:46.895Z,12.30
2019-02-15T01:42:17.614Z,15.57
2019-02-15T01:47:26.269Z,10.37
2019-02-15T01:52:31.589Z,11.50
2019-02-15T01:57:36.521Z,14.23
2019-02-15T02:02:41.554Z,12.53
2019-02-15T02:07:46.720Z,9.80
2019-02-15T02:12:51.547Z,13.10
2019-02-15T02:17:57.748Z,15.63
2019-02-15T02:23:02.344Z,15.03
2019-02-15T02:28:08.068Z,17.73
2019-02-15T02:33:13.163Z,14.40
2019-02-15T02:38:18.707Z,13.27
2019-02-15T02:43:23.816Z,11.97
2019-02-15T02:48:28.850Z,20.47
2019-02-15T02:53:33.650Z,18.10
2019-02-15T02:58:40.218Z,10.10
2019-02-15T03:03:44.649Z,12.83
2019-02-15T03:08:49.440Z,14.90
2019-02-15T03:13:54.339Z,16.33
2019-02-15T03:18:59.340Z,14.87
2019-02-15T03:24:04.264Z,11.87
2019-02-15T03:29:09.466Z,12.05
2019-02-15T03:34:15.014Z,13.33
2019-02-15T03:39:27.262Z,15.20
2019-02-15T03:44:31.726Z,12.20
2019-02-15T03:49:36.899Z,12.70
2019-02-15T03:54:41.604Z,13.37
2019-02-15T03:59:47.376Z,16.63
2019-02-15T04:04:52.903Z,12.37
2019-02-15T04:09:58.281Z,12.17
2019-02-15T04:15:03.269Z,12.00
2019-02-15T04:20:09.019Z,13.57
2019-02-15T04:25:13.829Z,15.48
2019-02-15T04:30:19.594Z,12.43
2019-02-15T04:35:24.237Z,12.03
2019-02-15T04:40:29.604Z,16.03
2019-02-15T04:45:34.438Z,11.53
2019-02-15T04:50:39.521Z,11.63
2019-02-15T04:55:44.324Z,13.73
2019-02-15T05:00:49.746Z,12.83
2019-02-15T05:05:54.970Z,13.87
2019-02-15T05:10:59.399Z,14.17
2019-02-15T05:16:04.340Z,11.13
2019-02-15T05:21:09.733Z,16.00
2019-02-15T05:26:14.881Z,14.93
2019-02-15T05:31:20.789Z,17.00
2019-02-15T05:36:25.681Z,15.40
2019-02-15T05:41:33.864Z,13.37
2019-02-15T05:46:38.507Z,16.73
2019-02-15T05:51:42.912Z,13.53
2019-02-15T05:56:48.818Z,15.13
2019-02-15T06:01:54.264Z,15.37
2019-02-15T06:07:00.335Z,10.97
2019-02-15T06:12:05.287Z,22.17
2019-02-15T06:17:09.771Z,15.83
2019-02-15T06:22:14.634Z,14.27
2019-02-15T06:27:19.664Z,12.07
2019-02-15T06:32:25.509Z,19.47
2019-02-15T06:37:30.884Z,15.43
2019-02-15T06:42:35.692Z,14.25
2019-02-15T06:47:40.569Z,15.23
2019-02-15T06:52:45.736Z,16.83
2019-02-15T06:57:51.023Z,12.17
2019-02-15T07:03:03.288Z,15.23
2019-02-15T07:08:07.440Z,19.00
2019-02-15T07:13:12.305Z,19.87
2019-02-15T07:18:17.295Z,17.10
2019-02-15T07:23:22.568Z,17.90
2019-02-15T07:28:27.214Z,13.47
2019-02-15T07:33:32.419Z,16.23
2019-02-15T07:38:36.807Z,15.67
2019-02-15T07:43:41.885Z,18.52
2019-02-15T07:48:46.274Z,16.80
2019-02-15T07:53:51.238Z,15.33
2019-02-15T07:58:56.142Z,21.87
2019-02-15T08:04:01.501Z,19.25
2019-02-15T08:09:10.767Z,14.07
2019-02-15T08:14:17.462Z,13.17
2019-02-15T08:19:22.505Z,13.03
2019-02-15T08:24:27.118Z,15.33
2019-02-15T08:29:32.479Z,14.87
2019-02-15T08:34:37.384Z,24.77
2019-02-15T08:39:42.848Z,14.33
2019-02-15T08:44:49.017Z,12.20
2019-02-15T08:49:56.055Z,16.53
2019-02-15T08:55:00.677Z,9.37
2019-02-15T09:00:06.413Z,13.00
2019-02-15T09:05:11.541Z,10.17
2019-02-15T09:10:16.802Z,12.28
2019-02-15T09:15:22.442Z,9.17
2019-02-15T09:20:27.240Z,9.83
2019-02-15T09:25:33.323Z,10.05
2019-02-15T09:30:40.049Z,11.30
2019-02-15T09:35:44.707Z,10.73
2019-02-15T09:40:49.775Z,13.83
2019-02-15T09:45:54.426Z,9.75
2019-02-15T09:50:59.121Z,11.38
2019-02-15T09:56:06.460Z,8.90
2019-02-15T10:01:11.399Z,11.60
2019-02-15T10:06:15.875Z,11.57
2019-02-15T10:11:20.256Z,12.03
2019-02-15T10:16:30.707Z,11.83
2019-02-15T10:21:34.123Z,15.73
2019-02-15T10:26:39.140Z,12.20
2019-02-15T10:31:44.064Z,12.40
2019-02-15T10:36:48.505Z,12.30
2019-02-15T10:41:53.612Z,12.00
2019-02-15T10:46:58.685Z,10.00
2019-02-15T10:52:03.331Z,9.23
2019-02-15T10:57:08.398Z,10.43
2019-02-15T11:02:12.823Z,8.57
2019-02-15T11:07:17.281Z,7.77
2019-02-15T11:12:22.199Z,8.13
2019-02-15T11:17:27.065Z,9.30
2019-02-15T11:22:31.789Z,8.40
2019-02-15T11:27:36.616Z,9.20
2019-02-15T11:32:43.935Z,7.33
2019-02-15T11:37:48.542Z,10.60
2019-02-15T11:42:54.400Z,6.70
2019-02-15T11:47:59.478Z,7.90
2019-02-15T11:53:03.867Z,7.57
2019-02-15T11:58:08.504Z,8.37
2019-02-15T12:03:13.128Z,6.67
2019-02-15T12:08:17.522Z,6.53
2019-02-15T12:13:25.043Z,6.60
2019-02-15T12:18:30.349Z,6.33
2019-02-15T12:23:39.189Z,9.87
2019-02-15T12:28:44.039Z,8.00
2019-02-15T12:33:48.586Z,14.67
2019-02-15T12:38:54.194Z,11.30
2019-02-15T12:43:59.092Z,7.20
2019-02-15T12:49:08.092Z,13.40
2019-02-15T12:54:15.725Z,9.63
2019-02-15T12:59:21.251Z,17.30
2019-02-15T13:04:26.778Z,9.27
2019-02-15T13:09:31.315Z,10.80
2019-02-15T13:14:38.633Z,12.30
2019-02-15T13:19:47.444Z,12.88
2019-02-15T13:24:52.739Z,6.10
2019-02-15T13:29:58.902Z,4.37
2019-02-15T13:35:04.656Z,5.73
2019-02-15T13:40:10.576Z,2.87
2019-02-15T13:45:15.996Z,2.77
2019-02-15T13:50:20.633Z,3.63
2019-02-15T13:55:25.768Z,3.73
2019-02-15T14:00:30.214Z,1.90
2019-02-15T14:05:38.311Z,2.37
2019-02-15T14:10:47.133Z,1.67
2019-02-15T14:15:52.267Z,0.87
2019-02-15T14:20:56.778Z,1.97
2019-02-15T14:26:02.446Z,13.60
2019-02-15T14:31:08.416Z,7.77
2019-02-15T14:36:13.196Z,7.43
2019-02-15T14:41:17.640Z,1.80
2019-02-15T14:46:24.818Z,2.13
2019-02-15T14:51:29.619Z,3.23
2019-02-15T14:56:34.406Z,3.20
2019-02-15T15:01:39.781Z,0.97
2019-02-15T15:06:44.890Z,2.27
2019-02-15T15:11:49.739Z,2.40
2019-02-15T15:16:59.906Z,1.43
2019-02-15T15:22:04.843Z,2.50
2019-02-15T15:27:10.406Z,2.80
2019-02-15T15:32:19.674Z,5.03
2019-02-15T15:37:24.726Z,6.50
2019-02-15T15:42:29.772Z,5.03
2019-02-15T15:47:34.956Z,2.67
2019-02-15T15:52:39.832Z,2.60
2019-02-15T15:57:44.457Z,5.40
2019-02-15T16:02:51.377Z,2.27
2019-02-15T16:07:56.565Z,5.77
2019-02-15T16:13:03.040Z,6.23
2019-02-15T16:18:15.605Z,4.80
2019-02-15T16:23:21.887Z,5.67
2019-02-15T16:28:26.854Z,4.23
2019-02-15T16:33:32.460Z,2.70
2019-02-15T16:38:39.944Z,4.00
2019-02-15T16:43:44.846Z,10.50
2019-02-15T16:48:50.301Z,7.65
2019-02-15T16:53:55.090Z,4.53
2019-02-15T16:59:01.447Z,15.30
2019-02-15T17:04:07.562Z,15.87
2019-02-15T17:09:16.879Z,12.47
2019-02-15T17:14:25.979Z,14.85
2019-02-15T17:19:31.829Z,10.00
2019-02-15T17:24:44.440Z,7.30
2019-02-15T17:29:53.538Z,6.60
2019-02-15T17:34:59.430Z,9.90
2019-02-15T17:40:10.497Z,6.50
2019-02-15T17:45:18.234Z,9.27
2019-02-15T17:50:23.553Z,4.83
2019-02-15T17:55:29.037Z,6.17
2019-02-15T18:00:34.193Z,6.03
2019-02-15T18:05:40.075Z,5.30
2019-02-15T18:10:45.142Z,5.27
2019-02-15T18:16:29.111Z,4.47
2019-02-15T18:21:36.121Z,9.10
2019-02-15T18:26:44.679Z,5.33
2019-02-15T18:31:52.214Z,4.73
2019-02-15T18:36:57.358Z,8.00
2019-02-15T18:42:05.129Z,12.83
2019-02-15T18:47:10.186Z,6.70
2019-02-15T18:52:21.457Z,6.77
2019-02-15T18:57:27.518Z,9.15
2019-02-15T19:02:33.672Z,9.10
2019-02-15T19:07:40.609Z,9.27
2019-02-15T19:12:51.607Z,12.37
2019-02-15T19:17:57.491Z,15.53
2019-02-15T19:23:16.601Z,17.20
2019-02-15T19:28:21.591Z,8.53
2019-02-15T19:33:26.853Z,10.78
2019-02-15T19:38:34.579Z,9.40
2019-02-15T19:43:39.563Z,11.67
2019-02-15T19:48:45.532Z,11.40
2019-02-15T19:53:50.067Z,11.63
2019-02-15T19:58:58.025Z,13.37
2019-02-15T20:04:04.128Z,11.93
2019-02-15T20:09:22.104Z,9.60
2019-02-15T20:14:27.628Z,7.67
2019-02-15T20:19:32.697Z,6.62
2019-02-15T20:24:37.061Z,6.47
2019-02-15T20:29:49.415Z,5.83
2019-02-15T20:34:52.391Z,7.73
2019-02-15T20:39:58.073Z,7.57
2019-02-15T20:45:03.949Z,9.23
2019-02-15T20:50:09.439Z,11.97
2019-02-15T20:55:16.171Z,12.13
2019-02-15T21:00:23.339Z,12.67
2019-02-15T21:05:28.064Z,11.57
2019-02-15T21:10:36.765Z,11.93
2019-02-15T21:15:42.597Z,10.47
2019-02-15T21:20:47.131Z,8.20
2019-02-15T21:25:54.848Z,9.30
2019-02-15T21:31:00.226Z,8.20
2019-02-15T21:36:09.008Z,10.83
2019-02-15T21:41:15.795Z,9.33
2019-02-15T21:46:21.038Z,16.40
2019-02-15T21:51:25.673Z,11.30
2019-02-15T21:56:30.256Z,10.17
2019-02-15T22:01:34.794Z,8.57
2019-02-15T22:06:41.811Z,9.33
2019-02-15T22:11:49.330Z,9.03
2019-02-15T22:16:54.340Z,11.37
2019-02-15T22:21:59.266Z,10.50
2019-02-15T22:27:04.691Z,10.07
2019-02-15T22:32:09.385Z,9.47
2019-02-15T22:37:14.152Z,10.90
2019-02-15T22:42:18.863Z,10.90
2019-02-15T22:47:23.501Z,16.33
2019-02-15T22:52:28.334Z,10.13
2019-02-15T22:57:34.537Z,12.30
2019-02-15T23:02:40.271Z,12.70
2019-02-15T23:07:45.111Z,14.03
2019-02-15T23:12:49.756Z,8.23
2019-02-15T23:17:55.280Z,8.93
2019-02-15T23:23:01.862Z,8.90
2019-02-15T23:28:07.970Z,9.87
2019-02-15T23:33:12.829Z,10.70
2019-02-15T23:38:18.085Z,11.50
2019-02-15T23:43:28.532Z,10.78
2019-02-15T23:48:33.410Z,13.72
2019-02-15T23:53:38.444Z,11.03
2019-02-15T23:58:49.657Z,10.93
